createdAt,value
2023-06-17T00:04:04.198Z,14.3
2023-06-17T00:14:04.515Z,14.0
2023-06-17T00:24:04.203Z,13.8
2023-06-17T00:34:04.185Z,13.6
2023-06-17T00:44:04.158Z,13.4
2023-06-17T00:54:04.274Z,13.3
2023-06-17T01:04:04.253Z,13.2
2023-06-17T01:14:04.102Z,13.1
2023-06-17T01:24:04.712Z,13.0
2023-06-17T01:34:04.901Z,12.8
2023-06-17T01:44:04.577Z,12.7
2023-06-17T01:54:04.097Z,12.6
2023-06-17T02:04:04.134Z,12.5
2023-06-17T02:14:04.098Z,12.3
2023-06-17T02:24:04.365Z,12.3
2023-06-17T02:34:04.392Z,12.2
2023-06-17T02:44:04.293Z,12.0
2023-06-17T02:54:04.198Z,12.0
2023-06-17T03:04:04.186Z,11.8
2023-06-17T03:14:04.375Z,11.7
2023-06-17T03:24:04.508Z,11.5
2023-06-17T03:34:04.399Z,11.5
2023-06-17T03:44:04.227Z,11.5
2023-06-17T03:54:04.520Z,11.5
2023-06-17T04:04:04.415Z,11.6
2023-06-17T04:14:04.210Z,11.9
2023-06-17T04:24:04.280Z,12.4
2023-06-17T04:34:04.237Z,12.8
2023-06-17T04:44:04.363Z,13.2
2023-06-17T04:54:04.686Z,13.5
2023-06-17T05:04:04.527Z,13.8
2023-06-17T05:14:04.899Z,14.1
2023-06-17T05:24:04.368Z,14.7
2023-06-17T05:34:05.267Z,15.3
2023-06-17T05:44:04.288Z,15.8
2023-06-17T05:54:04.646Z,16.2
2023-06-17T06:04:04.276Z,16.8
2023-06-17T06:14:05.505Z,17.2
2023-06-17T06:24:04.383Z,17.5
2023-06-17T06:34:04.306Z,18.0
2023-06-17T06:44:05.088Z,18.4
2023-06-17T06:54:04.359Z,18.9
2023-06-17T07:04:04.374Z,19.0
2023-06-17T07:14:04.347Z,19.3
2023-06-17T07:24:04.424Z,19.8
2023-06-17T07:34:04.443Z,20.1
2023-06-17T07:44:04.399Z,20.2
2023-06-17T07:54:04.349Z,20.6
2023-06-17T08:04:04.505Z,21.2
2023-06-17T08:14:04.391Z,21.7
2023-06-17T08:24:04.576Z,21.8
2023-06-17T08:34:04.856Z,22.2
2023-06-17T08:44:04.306Z,22.6
2023-06-17T08:54:04.438Z,22.8
2023-06-17T09:04:05.363Z,23.5
2023-06-17T09:14:04.623Z,24.0
2023-06-17T09:24:04.492Z,24.7
2023-06-17T09:34:04.443Z,25.9
2023-06-17T09:44:04.446Z,26.2
2023-06-17T09:54:04.694Z,26.3
2023-06-17T10:04:04.944Z,27.1
2023-06-17T10:14:04.479Z,26.7
2023-06-17T10:24:04.515Z,27.2
2023-06-17T10:34:04.512Z,27.6
2023-06-17T10:44:04.409Z,27.5
2023-06-17T10:54:04.859Z,27.2
2023-06-17T11:04:04.397Z,28.4
2023-06-17T11:14:04.424Z,29.3
2023-06-17T11:24:04.490Z,28.8
2023-06-17T11:34:04.509Z,29.7
2023-06-17T11:44:04.889Z,28.8
2023-06-17T11:54:04.567Z,28.2
2023-06-17T12:04:04.472Z,29.1
2023-06-17T12:14:04.415Z,29.2
2023-06-17T12:24:04.601Z,29.8
2023-06-17T12:34:05.284Z,29.5
2023-06-17T12:44:04.468Z,28.8
2023-06-17T12:54:04.819Z,29.5
2023-06-17T13:04:04.459Z,29.4
2023-06-17T13:14:04.911Z,29.9
2023-06-17T13:24:04.737Z,30.2
2023-06-17T13:34:04.376Z,29.1
2023-06-17T13:44:04.493Z,29.4
2023-06-17T13:54:04.517Z,29.7
2023-06-17T14:04:04.523Z,29.6
2023-06-17T14:14:04.477Z,29.4
2023-06-17T14:24:04.610Z,29.3
2023-06-17T14:34:04.411Z,29.6
2023-06-17T14:44:04.453Z,29.5
2023-06-17T14:54:04.611Z,29.2
2023-06-17T15:04:04.477Z,28.9
2023-06-17T15:14:04.366Z,28.8
2023-06-17T15:24:04.492Z,28.4
2023-06-17T15:34:04.451Z,28.0
2023-06-17T15:44:04.480Z,27.9
2023-06-17T15:54:05.772Z,28.0
2023-06-17T16:04:05.388Z,28.0
2023-06-17T16:14:04.414Z,27.8
2023-06-17T16:24:04.554Z,27.5
2023-06-17T16:34:04.571Z,27.4
2023-06-17T16:44:04.400Z,27.3
2023-06-17T16:54:06.724Z,27.1
2023-06-17T17:04:04.505Z,27.0
2023-06-17T17:14:04.956Z,26.9
2023-06-17T17:24:06.127Z,26.6
2023-06-17T17:34:04.493Z,26.3
2023-06-17T17:44:04.560Z,26.2
2023-06-17T17:54:04.470Z,26.1
2023-06-17T18:04:05.321Z,25.8
2023-06-17T18:14:04.503Z,25.7
2023-06-17T18:24:04.527Z,25.5
2023-06-17T18:34:04.499Z,25.2
2023-06-17T18:44:04.437Z,24.9
2023-06-17T18:54:04.864Z,24.8
2023-06-17T19:04:04.642Z,24.5
2023-06-17T19:14:04.555Z,24.0
2023-06-17T19:24:04.557Z,23.7
2023-06-17T19:34:04.432Z,23.6
2023-06-17T19:44:04.454Z,23.5
2023-06-17T19:54:04.676Z,22.8
2023-06-17T20:04:04.630Z,22.2
2023-06-17T20:14:04.576Z,21.7
2023-06-17T20:24:04.517Z,21.6
2023-06-17T20:34:04.603Z,21.4
2023-06-17T20:44:04.500Z,21.2
2023-06-17T20:54:04.439Z,20.9
2023-06-17T21:04:05.169Z,20.6
2023-06-17T21:14:05.057Z,20.2
2023-06-17T21:24:04.653Z,20.0
2023-06-17T21:34:04.503Z,19.8
2023-06-17T21:44:04.761Z,19.8
2023-06-17T21:54:04.494Z,19.8
2023-06-17T22:04:04.846Z,20.0
2023-06-17T22:14:04.610Z,20.0
2023-06-17T22:24:04.635Z,20.1
2023-06-17T22:34:04.451Z,19.8
2023-06-17T22:44:04.887Z,19.7
2023-06-17T22:54:04.602Z,19.7
2023-06-17T23:04:04.903Z,19.5
2023-06-17T23:14:04.515Z,19.5
2023-06-17T23:24:06.770Z,19.3
2023-06-17T23:34:07.371Z,19.1
2023-06-17T23:44:04.836Z,18.9
2023-06-17T23:54:11.133Z,18.8
